Time;durP1;ratioP1;P1;durP2;ratioP2;P2;SDS_P1;SDS_P2;PMS_P1;PMS_P2;Temp;Humidity;BMP_temperature;BMP_pressure;BME280_temperature;BME280_humidity;BME280_pressure;Samples;Min_cycle;Max_cycle;Signal;HPM_P1;HPM_P2
2022/01/28 00:00:05;;;;;;;3.07;1.00;;;6.10;99.90;;;;;;5077419;28;20200;-59
2022/01/28 00:02:48;;;;;;;1.37;0.80;;;6.10;99.90;;;;;;5072684;28;20210;-59
2022/01/28 00:05:20;;;;;;;1.13;0.80;;;6.10;99.90;;;;;;5058089;28;20202;-59
2022/01/28 00:07:47;;;;;;;2.90;1.10;;;6.10;99.90;;;;;;5058466;28;20195;-59
2022/01/28 00:10:15;;;;;;;2.40;0.77;;;6.10;99.90;;;;;;5069949;28;20201;-59
2022/01/28 00:13:02;;;;;;;1.23;0.87;;;6.10;99.90;;;;;;5060981;28;20198;-59
2022/01/28 00:15:34;;;;;;;3.13;0.70;;;6.10;99.90;;;;;;5072312;28;20277;-58
2022/01/28 00:37:48;;;;;;;2.13;0.53;;;6.10;99.90;;;;;;5071437;28;20196;-58
2022/01/28 00:40:14;;;;;;;1.10;0.57;;;6.10;99.90;;;;;;5080850;28;20207;-58
2022/01/28 00:42:41;;;;;;;1.67;0.80;;;6.20;99.90;;;;;;5071678;28;20197;-59
2022/01/28 00:45:09;;;;;;;0.67;0.67;;;6.20;99.90;;;;;;5079019;28;20614;-58
2022/01/28 00:47:36;;;;;;;0.50;0.50;;;6.20;99.90;;;;;;5075759;28;20198;-58
2022/01/28 00:50:04;;;;;;;1.37;0.67;;;6.10;99.90;;;;;;5080443;28;20600;-59
2022/01/28 00:52:33;;;;;;;0.60;0.50;;;6.00;99.90;;;;;;5082060;28;20553;-58
2022/01/28 00:55:00;;;;;;;0.30;0.30;;;6.00;99.90;;;;;;5080826;28;20216;-59
2022/01/28 00:57:27;;;;;;;0.70;0.43;;;5.90;99.90;;;;;;5078117;28;20206;-59
2022/01/28 00:59:54;;;;;;;0.77;0.40;;;6.00;99.90;;;;;;5085137;28;20201;-58
2022/01/28 01:02:22;;;;;;;1.17;0.70;;;6.00;99.90;;;;;;5064754;28;20211;-58
2022/01/28 01:04:49;;;;;;;0.63;0.50;;;6.00;99.90;;;;;;5068771;28;20214;-58
2022/01/28 01:07:16;;;;;;;0.50;0.50;;;6.00;99.90;;;;;;5069970;28;20273;-59
2022/01/28 01:09:49;;;;;;;0.40;0.40;;;6.10;99.90;;;;;;5068579;28;20199;-58
2022/01/28 01:12:18;;;;;;;0.50;0.50;;;6.10;99.90;;;;;;5076623;28;20287;-57
2022/01/28 01:14:46;;;;;;;0.80;0.40;;;6.10;99.90;;;;;;5069830;28;20234;-57
2022/01/28 01:17:25;;;;;;;0.50;0.50;;;6.20;99.90;;;;;;5071960;28;20224;-58
2022/01/28 01:20:04;;;;;;;0.70;0.60;;;6.20;99.90;;;;;;5068419;28;20285;-58
2022/01/28 01:22:37;;;;;;;0.63;0.60;;;6.20;99.90;;;;;;5069712;28;20191;-58
2022/01/28 01:25:15;;;;;;;1.33;0.60;;;6.20;99.90;;;;;;5072089;28;20214;-59
2022/01/28 01:27:42;;;;;;;1.13;0.70;;;6.20;99.90;;;;;;5062698;28;20199;-57
2022/01/28 01:30:13;;;;;;;0.53;0.53;;;6.30;99.90;;;;;;5072608;28;20285;-58
2022/01/28 01:32:40;;;;;;;0.30;0.30;;;6.30;99.90;;;;;;5070109;28;20299;-59
2022/01/28 01:35:08;;;;;;;0.40;0.40;;;6.30;99.90;;;;;;5075026;28;20749;-56
2022/01/28 01:37:35;;;;;;;0.93;0.60;;;6.30;99.90;;;;;;5074565;28;20196;-59
2022/01/28 01:40:03;;;;;;;0.87;0.53;;;6.40;99.90;;;;;;5075261;28;20666;-58
2022/01/28 01:42:39;;;;;;;0.70;0.50;;;6.40;99.90;;;;;;5068488;28;20538;-57
2022/01/28 01:53:21;;;;;;;1.43;0.70;;;6.50;99.90;;;;;;5076272;28;20720;-58
2022/01/28 01:55:48;;;;;;;1.03;0.70;;;6.50;99.90;;;;;;5071653;28;20600;-58
2022/01/28 01:58:19;;;;;;;2.90;0.60;;;6.60;99.90;;;;;;5076565;28;20580;-59
2022/01/28 02:00:46;;;;;;;1.53;0.73;;;6.60;99.90;;;;;;5074208;28;20198;-58
2022/01/28 02:03:13;;;;;;;1.20;0.73;;;6.60;99.90;;;;;;5072124;28;20209;-58
2022/01/28 02:05:41;;;;;;;0.50;0.50;;;6.60;99.90;;;;;;5068434;28;20227;-58
2022/01/28 02:08:08;;;;;;;0.60;0.60;;;6.70;99.90;;;;;;5069251;28;20290;-58
2022/01/28 02:10:35;;;;;;;1.63;0.70;;;6.70;99.90;;;;;;5066527;28;20234;-59
2022/01/28 02:13:02;;;;;;;1.33;0.50;;;6.70;99.90;;;;;;5069089;28;20198;-57
2022/01/28 02:15:31;;;;;;;1.13;0.50;;;6.70;99.90;;;;;;5070621;28;20203;-55
2022/01/28 02:17:59;;;;;;;0.67;0.40;;;6.80;99.90;;;;;;5068954;28;20253;-58
2022/01/28 02:20:32;;;;;;;0.40;0.40;;;6.80;99.90;;;;;;5067906;28;20203;-58
2022/01/28 02:22:59;;;;;;;1.00;0.50;;;6.80;99.90;;;;;;5069539;28;20704;-57
2022/01/28 02:25:28;;;;;;;2.10;0.60;;;6.80;99.90;;;;;;5068113;28;20570;-58
2022/01/28 02:27:57;;;;;;;0.63;0.50;;;6.80;99.90;;;;;;5059442;28;20200;-58
2022/01/28 02:30:24;;;;;;;0.87;0.30;;;6.80;99.90;;;;;;5065907;28;20276;-59
2022/01/28 02:32:57;;;;;;;0.40;0.40;;;6.80;99.90;;;;;;5068659;28;20199;-57
2022/01/28 02:35:24;;;;;;;0.40;0.40;;;6.80;99.90;;;;;;5075065;28;20308;-57
2022/01/28 02:37:53;;;;;;;0.60;0.40;;;6.80;99.90;;;;;;5078607;28;20261;-58
2022/01/28 02:40:20;;;;;;;1.50;0.60;;;6.80;99.90;;;;;;5077791;28;20299;-59
2022/01/28 02:42:57;;;;;;;2.37;0.50;;;6.80;99.90;;;;;;5079771;28;20203;-58
2022/01/28 02:45:32;;;;;;;0.77;0.40;;;6.80;99.90;;;;;;5074472;28;20783;-58
2022/01/28 02:48:02;;;;;;;0.70;0.40;;;6.80;99.90;;;;;;5077219;28;20275;-60
2022/01/28 02:50:36;;;;;;;0.40;0.40;;;6.80;99.90;;;;;;5078298;28;20295;-59
2022/01/28 02:53:07;;;;;;;0.50;0.43;;;6.80;99.90;;;;;;5085361;28;20278;-58
2022/01/28 02:55:39;;;;;;;1.93;0.60;;;6.70;99.90;;;;;;5072822;28;20555;-57
2022/01/28 02:58:19;;;;;;;0.50;0.50;;;6.80;99.90;;;;;;5077590;28;20204;-59
2022/01/28 03:00:47;;;;;;;2.03;0.60;;;6.70;99.90;;;;;;5072798;28;20194;-57
2022/01/28 03:03:15;;;;;;;1.07;0.40;;;6.70;99.90;;;;;;5063055;28;20251;-57
2022/01/28 03:05:42;;;;;;;0.40;0.40;;;6.70;99.90;;;;;;5063746;28;20215;-58
2022/01/28 03:08:12;;;;;;;1.07;0.60;;;6.70;99.90;;;;;;5073413;28;20259;-59
2022/01/28 03:10:49;;;;;;;0.40;0.40;;;6.70;99.90;;;;;;5071820;28;20204;-59
2022/01/28 03:16:08;;;;;;;1.03;0.40;;;6.70;99.90;;;;;;5070896;28;20722;-58
2022/01/28 03:18:43;;;;;;;1.03;0.30;;;6.60;99.90;;;;;;5075569;28;20775;-58
2022/01/28 03:21:23;;;;;;;0.53;0.20;;;6.60;99.90;;;;;;5073618;28;20595;-59
2022/01/28 03:23:52;;;;;;;0.47;0.40;;;6.60;99.90;;;;;;5072892;28;20228;-58
2022/01/28 03:26:19;;;;;;;0.23;0.23;;;6.60;99.90;;;;;;5073218;28;20642;-59
2022/01/28 03:28:46;;;;;;;0.73;0.30;;;6.60;99.90;;;;;;5074880;28;20210;-60
2022/01/28 03:31:13;;;;;;;0.87;0.30;;;6.60;99.90;;;;;;5070933;28;20256;-59
2022/01/28 03:33:41;;;;;;;0.87;0.30;;;6.60;99.90;;;;;;5076625;28;20202;-58
2022/01/28 03:36:10;;;;;;;0.30;0.30;;;6.40;99.90;;;;;;5071937;28;20195;-59
2022/01/28 03:38:38;;;;;;;1.03;0.40;;;6.60;99.90;;;;;;5078990;28;20201;-59
2022/01/28 03:41:12;;;;;;;0.53;0.30;;;6.60;99.90;;;;;;5077510;28;20195;-56
2022/01/28 03:43:39;;;;;;;0.70;0.37;;;6.50;99.90;;;;;;5079029;28;20264;-58
2022/01/28 03:46:07;;;;;;;0.40;0.30;;;6.50;99.90;;;;;;5076709;28;20233;-58
2022/01/28 03:48:34;;;;;;;0.30;0.30;;;6.50;99.90;;;;;;5079667;28;20197;-56
2022/01/28 03:51:01;;;;;;;0.30;0.30;;;6.40;99.90;;;;;;5071953;28;20201;-58
2022/01/28 03:53:28;;;;;;;0.70;0.30;;;6.40;99.90;;;;;;5080458;28;20208;-58
2022/01/28 03:55:57;;;;;;;0.30;0.30;;;6.40;99.90;;;;;;5076078;28;20618;-57
2022/01/28 03:58:26;;;;;;;0.40;0.40;;;6.30;99.90;;;;;;5079289;28;20214;-58
2022/01/28 04:00:55;;;;;;;0.30;0.30;;;6.30;99.90;;;;;;5078330;28;20185;-58
2022/01/28 04:03:40;;;;;;;1.13;0.30;;;6.30;99.90;;;;;;5060231;28;20218;-58
2022/01/28 04:11:53;;;;;;;0.30;0.20;;;6.20;99.90;;;;;;5070817;28;20189;-57
2022/01/28 04:14:36;;;;;;;0.53;0.33;;;6.20;99.90;;;;;;5069484;28;20737;-58
2022/01/28 04:17:21;;;;;;;0.70;0.70;;;6.10;99.90;;;;;;5074119;28;20205;-59
2022/01/28 04:19:48;;;;;;;0.70;0.70;;;6.10;99.90;;;;;;5071064;28;20193;-59
2022/01/28 04:22:16;;;;;;;1.60;1.33;;;6.10;99.90;;;;;;5074163;28;20199;-58
2022/01/28 04:24:43;;;;;;;1.60;1.50;;;6.10;99.90;;;;;;5071667;28;20209;-58
2022/01/28 04:27:10;;;;;;;0.90;0.90;;;6.00;99.90;;;;;;5074872;28;20201;-57
2022/01/28 04:29:38;;;;;;;0.77;0.77;;;6.00;99.90;;;;;;5073314;28;20201;-57
2022/01/28 04:32:06;;;;;;;0.77;0.50;;;5.90;99.90;;;;;;5077221;28;20681;-55
2022/01/28 04:34:34;;;;;;;0.30;0.30;;;5.90;99.90;;;;;;5072707;28;20709;-57
2022/01/28 04:37:10;;;;;;;0.50;0.50;;;5.90;99.90;;;;;;5077708;28;20202;-58
2022/01/28 04:39:44;;;;;;;0.50;0.50;;;5.90;99.90;;;;;;5076031;28;20211;-58
2022/01/28 04:42:21;;;;;;;0.37;0.37;;;5.90;99.90;;;;;;5074529;28;20196;-56
2022/01/28 04:44:58;;;;;;;0.30;0.30;;;5.80;99.90;;;;;;5078521;28;20194;-56
2022/01/28 04:47:33;;;;;;;0.30;0.30;;;5.80;99.90;;;;;;5075595;28;20189;-57
2022/01/28 04:50:09;;;;;;;0.30;0.30;;;5.80;99.90;;;;;;5080271;28;20194;-56
2022/01/28 04:58:28;;;;;;;0.30;0.30;;;5.80;99.90;;;;;;5071316;28;20263;-58
2022/01/28 05:01:15;;;;;;;0.53;0.20;;;5.80;99.90;;;;;;5080689;28;20276;-59
2022/01/28 05:03:55;;;;;;;0.30;0.30;;;5.70;99.90;;;;;;5058071;28;20201;-58
2022/01/28 05:06:50;;;;;;;1.03;0.50;;;5.70;99.90;;;;;;5067636;28;20209;-58
2022/01/28 05:09:55;;;;;;;0.30;0.20;;;5.70;99.90;;;;;;5082847;28;20200;-58
2022/01/28 05:15:40;;;;;;;0.47;0.33;;;5.70;99.90;;;;;;5072219;28;20192;-58
2022/01/28 05:26:32;;;;;;;0.70;0.37;;;5.70;99.90;;;;;;5070393;28;20312;-58
2022/01/28 05:29:00;;;;;;;0.53;0.50;;;5.70;99.90;;;;;;5072731;28;20227;-54
2022/01/28 05:31:27;;;;;;;0.30;0.30;;;5.70;99.90;;;;;;5072618;28;20326;-59
2022/01/28 05:33:55;;;;;;;0.60;0.40;;;5.60;99.90;;;;;;5072004;28;20197;-58
2022/01/28 05:36:23;;;;;;;0.30;0.30;;;5.60;99.90;;;;;;5068906;28;20196;-58
2022/01/28 05:38:50;;;;;;;0.60;0.47;;;5.60;99.90;;;;;;5075210;28;20201;-59
2022/01/28 05:41:17;;;;;;;1.00;0.70;;;5.60;99.90;;;;;;5076402;28;20207;-59
2022/01/28 05:43:44;;;;;;;0.40;0.40;;;5.50;99.90;;;;;;5076866;28;20246;-59
2022/01/28 05:46:12;;;;;;;1.33;0.40;;;5.60;99.90;;;;;;5077610;28;20212;-58
2022/01/28 05:48:39;;;;;;;1.33;0.50;;;5.60;99.90;;;;;;5077764;28;20193;-57
2022/01/28 05:51:07;;;;;;;0.63;0.50;;;5.50;99.90;;;;;;5077915;28;20200;-56
2022/01/28 05:53:34;;;;;;;0.70;0.70;;;5.50;99.90;;;;;;5078016;28;20254;-58
2022/01/28 05:56:01;;;;;;;1.37;0.70;;;5.50;99.90;;;;;;5078695;28;20192;-56
2022/01/28 05:58:29;;;;;;;1.57;1.00;;;5.50;99.90;;;;;;5079322;28;20196;-56
2022/01/28 06:00:56;;;;;;;0.73;0.50;;;5.50;99.90;;;;;;5080256;28;20227;-58
2022/01/28 06:03:23;;;;;;;0.50;0.50;;;5.50;99.90;;;;;;5071560;28;20193;-55
2022/01/28 06:05:50;;;;;;;1.53;0.50;;;5.50;99.90;;;;;;5063217;28;20212;-58
2022/01/28 06:08:18;;;;;;;1.43;0.70;;;5.50;99.90;;;;;;5070726;28;20749;-57
2022/01/28 06:10:45;;;;;;;0.93;0.60;;;5.50;99.90;;;;;;5073353;28;20200;-58
2022/01/28 06:13:13;;;;;;;2.43;0.70;;;5.50;99.90;;;;;;5074004;28;20197;-58
2022/01/28 06:15:43;;;;;;;2.30;0.67;;;5.50;99.90;;;;;;5072773;28;20662;-55
2022/01/28 06:18:11;;;;;;;2.40;1.30;;;5.40;99.90;;;;;;5073153;28;20197;-55
2022/01/28 06:20:39;;;;;;;2.20;1.00;;;5.40;99.90;;;;;;5076177;28;20277;-57
2022/01/28 06:23:06;;;;;;;0.63;0.63;;;5.40;99.90;;;;;;5075826;28;20201;-58
2022/01/28 06:25:35;;;;;;;0.63;0.60;;;5.40;99.90;;;;;;5072278;28;20696;-59
2022/01/28 06:28:02;;;;;;;0.80;0.73;;;5.40;99.90;;;;;;5072851;28;20678;-59
2022/01/28 06:30:29;;;;;;;3.60;1.20;;;5.40;99.90;;;;;;5073043;28;20582;-57
2022/01/28 06:32:56;;;;;;;3.07;1.20;;;5.40;99.90;;;;;;5076750;28;20197;-58
2022/01/28 06:35:23;;;;;;;2.23;0.97;;;5.40;99.90;;;;;;5071819;28;20600;-58
2022/01/28 06:37:50;;;;;;;1.37;0.90;;;5.40;99.90;;;;;;5079087;28;20250;-57
2022/01/28 06:40:18;;;;;;;2.33;1.20;;;5.50;99.90;;;;;;5075568;28;20201;-59
2022/01/28 06:42:47;;;;;;;7.87;2.50;;;5.50;99.90;;;;;;5072401;28;20217;-58
2022/01/28 06:45:14;;;;;;;5.03;2.10;;;5.50;99.90;;;;;;5072537;28;20238;-55
2022/01/28 06:47:41;;;;;;;3.80;1.73;;;5.50;99.90;;;;;;5072031;28;20194;-57
2022/01/28 06:50:10;;;;;;;3.20;1.60;;;5.50;99.90;;;;;;5078414;28;20612;-57
2022/01/28 06:52:40;;;;;;;2.83;1.30;;;5.50;99.90;;;;;;5080787;28;20205;-57
2022/01/28 06:55:09;;;;;;;3.80;1.20;;;5.50;99.90;;;;;;5075447;28;20280;-58
2022/01/28 06:57:36;;;;;;;2.83;1.10;;;5.50;99.90;;;;;;5073088;28;20201;-56
2022/01/28 07:00:07;;;;;;;2.10;1.10;;;5.50;99.90;;;;;;5078108;28;20208;-57
2022/01/28 07:02:35;;;;;;;3.47;1.67;;;5.60;99.90;;;;;;5080170;28;20186;-55
2022/01/28 07:05:02;;;;;;;3.77;1.40;;;5.60;99.90;;;;;;5072273;28;20684;-55
2022/01/28 07:07:29;;;;;;;2.80;1.27;;;5.50;99.90;;;;;;5070758;28;20259;-56
2022/01/28 07:09:56;;;;;;;4.60;1.00;;;5.50;99.90;;;;;;5069176;28;20235;-57
2022/01/28 07:12:23;;;;;;;4.73;1.50;;;5.50;99.90;;;;;;5070059;28;20223;-59
2022/01/28 07:14:50;;;;;;;2.23;1.20;;;4.90;99.90;;;;;;5072306;28;20204;-59
2022/01/28 07:17:19;;;;;;;2.23;1.00;;;5.50;99.90;;;;;;5076008;28;20189;-58
2022/01/28 07:19:46;;;;;;;1.83;1.00;;;5.40;99.90;;;;;;5071783;28;20204;-58
2022/01/28 07:22:13;;;;;;;1.37;1.07;;;5.50;99.90;;;;;;5072519;28;20632;-58
2022/01/28 07:24:40;;;;;;;1.23;0.90;;;5.40;99.90;;;;;;5071235;28;20201;-58
2022/01/28 07:27:08;;;;;;;2.73;1.20;;;5.40;99.90;;;;;;5071197;28;20263;-59
2022/01/28 07:29:35;;;;;;;2.87;1.47;;;5.40;99.90;;;;;;5071549;28;20223;-57
2022/01/28 07:32:02;;;;;;;4.17;1.27;;;5.40;99.90;;;;;;5069801;28;20209;-56
2022/01/28 07:34:31;;;;;;;1.83;1.13;;;5.40;99.90;;;;;;5070550;28;20225;-56
2022/01/28 07:36:58;;;;;;;3.53;1.20;;;5.40;99.90;;;;;;5066855;28;20290;-56
2022/01/28 07:39:27;;;;;;;4.30;1.20;;;5.40;99.90;;;;;;5070620;28;20185;-58
2022/01/28 07:41:54;;;;;;;2.57;1.03;;;5.50;99.90;;;;;;5068755;28;20193;-58
2022/01/28 07:44:21;;;;;;;1.20;0.73;;;5.50;99.90;;;;;;5072815;28;20197;-58
2022/01/28 07:46:48;;;;;;;1.83;0.73;;;5.40;99.90;;;;;;5076810;28;20203;-58
2022/01/28 07:49:15;;;;;;;2.50;1.00;;;5.50;99.90;;;;;;5072595;28;20616;-58
2022/01/28 07:51:44;;;;;;;1.17;1.03;;;5.50;99.90;;;;;;5075090;28;20197;-59
2022/01/28 07:54:11;;;;;;;1.60;0.90;;;5.50;99.90;;;;;;5101725;28;20205;-58
2022/01/28 07:56:38;;;;;;;3.07;1.00;;;5.40;99.90;;;;;;5081101;28;20196;-58
2022/01/28 07:59:05;;;;;;;2.47;1.10;;;5.40;99.90;;;;;;5078999;28;20193;-58
2022/01/28 08:01:32;;;;;;;7.53;1.10;;;5.40;99.90;;;;;;5081823;28;20721;-58
2022/01/28 08:04:00;;;;;;;0.80;0.80;;;5.40;99.90;;;;;;5069334;28;20194;-57
2022/01/28 08:06:28;;;;;;;1.90;0.80;;;5.40;99.90;;;;;;5068307;28;20254;-61
2022/01/28 08:08:59;;;;;;;1.97;0.60;;;5.50;99.90;;;;;;5069359;28;20200;-58
2022/01/28 08:11:26;;;;;;;3.50;1.20;;;5.50;99.90;;;;;;5067647;28;20217;-59
2022/01/28 08:13:53;;;;;;;2.20;0.70;;;5.60;99.90;;;;;;5077051;28;20209;-58
2022/01/28 08:16:20;;;;;;;0.70;0.70;;;5.60;99.90;;;;;;5085545;28;20200;-57
2022/01/28 08:18:47;;;;;;;1.40;0.90;;;5.70;99.90;;;;;;5080105;28;20381;-58
2022/01/28 08:21:16;;;;;;;2.00;0.90;;;5.80;99.90;;;;;;5068192;28;20652;-55
2022/01/28 08:23:43;;;;;;;1.03;0.70;;;5.80;99.90;;;;;;5069774;28;20603;-58
2022/01/28 08:26:13;;;;;;;4.37;1.53;;;5.80;99.90;;;;;;5080328;28;20209;-58
2022/01/28 08:28:41;;;;;;;3.10;1.50;;;5.80;99.90;;;;;;5081959;28;20319;-57
2022/01/28 08:31:09;;;;;;;4.50;1.40;;;5.80;99.90;;;;;;5086055;28;20253;-57
2022/01/28 08:33:36;;;;;;;3.93;1.53;;;5.80;99.90;;;;;;5070919;28;20204;-59
2022/01/28 08:36:04;;;;;;;1.20;0.87;;;5.80;99.90;;;;;;5066239;28;20343;-58
2022/01/28 08:38:36;;;;;;;2.00;1.20;;;5.80;99.90;;;;;;5074220;28;20202;-57
2022/01/28 08:41:04;;;;;;;3.97;1.10;;;5.80;99.90;;;;;;5080707;28;20205;-59
2022/01/28 08:43:33;;;;;;;2.70;1.70;;;5.90;99.90;;;;;;5072962;28;20201;-57
2022/01/28 08:46:00;;;;;;;1.00;1.00;;;5.90;99.90;;;;;;5064154;28;20229;-57
2022/01/28 08:48:27;;;;;;;1.70;1.00;;;5.90;99.90;;;;;;5078142;28;20209;-57
2022/01/28 08:50:55;;;;;;;1.30;0.90;;;5.90;99.90;;;;;;5069660;28;20200;-58
2022/01/28 08:53:22;;;;;;;1.13;1.00;;;5.90;99.90;;;;;;5071413;28;20189;-58
2022/01/28 08:55:49;;;;;;;1.27;0.90;;;6.00;99.90;;;;;;5076311;28;20209;-58
2022/01/28 08:58:16;;;;;;;2.50;0.80;;;6.00;99.90;;;;;;5078905;28;20197;-56
2022/01/28 09:00:47;;;;;;;1.87;0.90;;;6.00;99.90;;;;;;5069838;28;20194;-59
2022/01/28 09:03:18;;;;;;;1.00;0.90;;;6.00;99.90;;;;;;5079011;28;20221;-58
2022/01/28 09:05:45;;;;;;;1.43;1.20;;;6.00;99.90;;;;;;5073304;28;20270;-59
2022/01/28 09:08:13;;;;;;;2.13;1.17;;;6.00;99.90;;;;;;5063936;28;20249;-59
2022/01/28 09:10:44;;;;;;;2.47;0.87;;;6.00;99.90;;;;;;5077711;28;20197;-59
2022/01/28 09:13:27;;;;;;;1.10;0.73;;;6.00;99.90;;;;;;5082369;28;20215;-59
2022/01/28 09:15:58;;;;;;;1.77;0.87;;;6.00;99.90;;;;;;5066319;28;20204;-58
2022/01/28 09:18:25;;;;;;;1.00;0.80;;;6.10;99.90;;;;;;5078292;28;20225;-59
2022/01/28 09:20:53;;;;;;;3.57;1.00;;;6.10;99.90;;;;;;5070485;28;20205;-59
2022/01/28 09:23:20;;;;;;;1.20;0.93;;;6.20;99.90;;;;;;5059157;28;20234;-58
2022/01/28 09:25:47;;;;;;;0.80;0.70;;;6.30;99.90;;;;;;5068011;28;20197;-57
2022/01/28 09:28:15;;;;;;;2.93;1.13;;;6.40;99.90;;;;;;5073291;28;20245;-60
2022/01/28 09:30:42;;;;;;;3.33;0.80;;;6.50;99.90;;;;;;5073660;28;20189;-57
2022/01/28 09:33:10;;;;;;;1.30;1.07;;;6.60;99.90;;;;;;5066455;28;20209;-58
2022/01/28 09:35:38;;;;;;;3.77;1.70;;;6.60;99.90;;;;;;5070952;28;20241;-57
2022/01/28 09:38:06;;;;;;;4.73;1.93;;;6.50;99.90;;;;;;5070847;28;20584;-58
2022/01/28 09:40:33;;;;;;;6.10;1.63;;;6.50;99.90;;;;;;5071215;28;20193;-59
2022/01/28 09:43:02;;;;;;;1.87;1.30;;;6.40;99.90;;;;;;5082373;28;20209;-59
2022/01/28 09:45:29;;;;;;;3.00;1.10;;;6.40;99.90;;;;;;5073962;28;20293;-57
2022/01/28 09:47:57;;;;;;;2.27;1.50;;;6.40;99.90;;;;;;5064387;28;20208;-58
2022/01/28 09:50:29;;;;;;;4.50;1.20;;;6.30;99.90;;;;;;5085858;28;20204;-58
2022/01/28 09:52:57;;;;;;;1.60;0.90;;;6.20;99.90;;;;;;5076343;28;20567;-58
2022/01/28 09:55:26;;;;;;;1.33;1.00;;;6.20;99.90;;;;;;5072595;28;20286;-58
2022/01/28 09:57:55;;;;;;;1.53;1.00;;;6.30;99.90;;;;;;5083015;28;20194;-58
2022/01/28 10:00:25;;;;;;;1.57;1.20;;;6.20;99.90;;;;;;5079169;28;20652;-58
2022/01/28 10:02:54;;;;;;;1.10;1.00;;;6.30;99.90;;;;;;5064853;28;20199;-58
2022/01/28 10:05:25;;;;;;;1.30;1.20;;;6.20;99.90;;;;;;5074492;28;20206;-58
2022/01/28 10:08:15;;;;;;;2.53;1.30;;;6.30;99.90;;;;;;5063825;28;20262;-58
2022/01/28 10:10:46;;;;;;;1.53;1.30;;;6.20;99.90;;;;;;5070056;28;20540;-59
2022/01/28 10:13:17;;;;;;;1.70;1.23;;;6.20;99.90;;;;;;5071034;28;20198;-59
2022/01/28 10:16:05;;;;;;;2.97;0.90;;;6.30;99.90;;;;;;5075933;28;20285;-58
2022/01/28 10:18:48;;;;;;;1.80;0.97;;;6.30;99.90;;;;;;5077778;28;20182;-58
2022/01/28 10:21:17;;;;;;;1.33;1.00;;;6.30;99.90;;;;;;5072051;28;20328;-58
2022/01/28 10:24:19;;;;;;;1.47;1.00;;;6.40;99.90;;;;;;5075624;28;20212;-58
2022/01/28 10:26:48;;;;;;;1.80;0.97;;;6.60;99.90;;;;;;5074665;28;20205;-57
2022/01/28 10:29:18;;;;;;;2.47;1.00;;;6.80;99.90;;;;;;5075057;28;20662;-57
2022/01/28 10:31:48;;;;;;;1.27;0.97;;;6.80;99.90;;;;;;5079237;28;20206;-57
2022/01/28 10:34:18;;;;;;;2.60;1.47;;;6.90;99.90;;;;;;5076401;28;20272;-58
2022/01/28 10:36:47;;;;;;;1.77;1.17;;;6.80;99.90;;;;;;5078490;28;20563;-58
2022/01/28 10:39:18;;;;;;;2.37;1.10;;;6.70;99.90;;;;;;5078249;28;20614;-58
2022/01/28 10:41:58;;;;;;;4.03;1.70;;;6.60;99.90;;;;;;5077545;28;20614;-58
2022/01/28 10:44:27;;;;;;;1.43;1.10;;;6.50;99.90;;;;;;5077796;28;20216;-58
2022/01/28 10:47:00;;;;;;;2.53;1.17;;;6.40;99.90;;;;;;5080807;28;20214;-58
2022/01/28 10:49:33;;;;;;;2.67;1.57;;;6.50;99.90;;;;;;5069597;28;20288;-58
2022/01/28 10:52:06;;;;;;;3.60;1.40;;;6.50;99.90;;;;;;5081383;28;20191;-58
2022/01/28 10:54:36;;;;;;;3.40;1.70;;;6.40;99.90;;;;;;5074473;28;20197;-58
2022/01/28 10:57:04;;;;;;;1.30;1.17;;;6.40;99.90;;;;;;5070908;28;20294;-57
2022/01/28 10:59:34;;;;;;;3.33;1.00;;;6.30;99.90;;;;;;5071693;28;20201;-57
2022/01/28 11:02:02;;;;;;;1.37;1.10;;;6.60;99.90;;;;;;5072860;28;20195;-58
2022/01/28 11:04:29;;;;;;;1.50;1.00;;;6.40;99.90;;;;;;5070887;28;20615;-57
2022/01/28 11:06:58;;;;;;;2.50;1.67;;;6.50;99.90;;;;;;5073502;28;20208;-57
2022/01/28 11:09:26;;;;;;;3.77;2.17;;;6.70;99.90;;;;;;5072246;28;20202;-59
2022/01/28 11:11:55;;;;;;;4.07;2.40;;;6.90;99.90;;;;;;5075721;28;20626;-56
2022/01/28 11:14:23;;;;;;;2.37;1.60;;;6.90;99.90;;;;;;5074993;28;20663;-59
2022/01/28 11:16:50;;;;;;;1.70;1.10;;;6.90;99.90;;;;;;5077564;28;20202;-58
2022/01/28 11:19:20;;;;;;;2.20;1.10;;;6.80;99.90;;;;;;5075025;28;20552;-58
2022/01/28 11:22:29;;;;;;;2.43;1.20;;;6.80;99.90;;;;;;5068856;28;20321;-57
2022/01/28 11:25:10;;;;;;;1.37;1.00;;;6.80;99.90;;;;;;5078074;28;20290;-57
2022/01/28 11:27:40;;;;;;;2.97;1.30;;;6.70;99.90;;;;;;5070683;28;20216;-57
2022/01/28 11:30:25;;;;;;;1.40;1.20;;;6.70;99.90;;;;;;5078268;28;20218;-58
2022/01/28 11:33:05;;;;;;;2.67;1.00;;;6.70;99.90;;;;;;5080560;28;20203;-57
2022/01/28 11:35:36;;;;;;;2.77;1.00;;;6.70;99.90;;;;;;5074584;28;20596;-58
2022/01/28 11:38:38;;;;;;;3.80;1.33;;;6.70;99.90;;;;;;5072249;28;20271;-56
2022/01/28 11:41:10;;;;;;;0.80;0.73;;;6.60;99.90;;;;;;5079631;28;20616;-57
2022/01/28 11:43:48;;;;;;;3.63;0.93;;;6.60;99.90;;;;;;5078766;28;20203;-57
2022/01/28 11:46:24;;;;;;;2.73;1.50;;;6.60;99.90;;;;;;5078253;28;20231;-56
2022/01/28 11:49:19;;;;;;;1.77;1.10;;;6.60;99.90;;;;;;5076843;28;20238;-57
2022/01/28 11:51:46;;;;;;;2.03;1.23;;;6.60;99.90;;;;;;5080321;28;20195;-57
2022/01/28 11:54:15;;;;;;;1.97;1.10;;;6.60;99.90;;;;;;5076464;28;20203;-59
2022/01/28 11:57:21;;;;;;;3.50;0.90;;;6.50;99.90;;;;;;5071688;28;20206;-58
2022/01/28 11:59:50;;;;;;;1.93;1.00;;;6.50;99.90;;;;;;5070932;28;20225;-55
2022/01/28 12:02:20;;;;;;;1.70;0.97;;;6.50;99.90;;;;;;5070733;28;20191;-58
2022/01/28 12:04:47;;;;;;;2.27;1.30;;;6.50;99.90;;;;;;5069338;28;20238;-56
2022/01/28 12:07:18;;;;;;;1.63;1.00;;;6.40;99.90;;;;;;5070959;28;20268;-57
2022/01/28 12:09:48;;;;;;;2.73;1.10;;;6.40;99.90;;;;;;5069437;28;20212;-57
2022/01/28 12:12:24;;;;;;;1.00;0.80;;;6.30;99.90;;;;;;5059705;28;20201;-59
2022/01/28 12:15:08;;;;;;;1.73;0.97;;;6.30;99.90;;;;;;5070315;28;20190;-59
2022/01/28 12:17:41;;;;;;;2.97;1.17;;;6.20;99.90;;;;;;5070489;28;20255;-58
2022/01/28 12:20:35;;;;;;;3.90;0.97;;;6.20;99.90;;;;;;5064488;28;20294;-58
2022/01/28 12:23:18;;;;;;;1.03;0.70;;;6.20;99.90;;;;;;5070717;28;20196;-57
2022/01/28 12:25:48;;;;;;;3.67;1.20;;;6.20;99.90;;;;;;5066068;28;20226;-58
2022/01/28 12:28:16;;;;;;;1.53;1.00;;;6.20;99.90;;;;;;5070543;28;20628;-60
2022/01/28 12:30:46;;;;;;;3.10;1.13;;;6.20;99.90;;;;;;5068366;28;20214;-60
2022/01/28 12:33:14;;;;;;;1.43;1.07;;;6.10;99.90;;;;;;5060267;28;20196;-59
2022/01/28 12:35:42;;;;;;;3.43;1.00;;;6.10;99.90;;;;;;5072761;28;20308;-60
2022/01/28 12:38:13;;;;;;;2.87;1.27;;;6.10;99.90;;;;;;5068598;28;20218;-60
2022/01/28 12:40:47;;;;;;;3.13;1.40;;;6.10;99.90;;;;;;5067787;28;20202;-60
2022/01/28 12:43:18;;;;;;;3.50;1.17;;;6.00;99.90;;;;;;5072302;28;20191;-59
2022/01/28 12:45:58;;;;;;;3.10;1.17;;;6.10;99.90;;;;;;5069384;28;20320;-60
2022/01/28 12:48:26;;;;;;;1.40;0.80;;;6.00;99.90;;;;;;5076671;28;20211;-60
2022/01/28 12:50:54;;;;;;;2.37;0.97;;;6.00;99.90;;;;;;5071985;28;20222;-60
2022/01/28 12:53:30;;;;;;;3.37;1.27;;;6.00;99.90;;;;;;5071629;28;20248;-60
2022/01/28 12:56:00;;;;;;;2.93;1.30;;;6.00;99.90;;;;;;5055685;28;20198;-60
2022/01/28 12:58:38;;;;;;;1.30;0.90;;;6.00;99.90;;;;;;5074573;28;20196;-60
2022/01/28 13:01:11;;;;;;;2.20;0.90;;;5.90;99.90;;;;;;5075130;28;20754;-59
2022/01/28 13:03:47;;;;;;;3.33;1.33;;;5.90;99.90;;;;;;5070441;28;20684;-60
2022/01/28 13:06:26;;;;;;;3.57;1.03;;;5.90;99.90;;;;;;5069034;28;20199;-59
2022/01/28 13:08:55;;;;;;;2.40;1.13;;;5.90;99.90;;;;;;5056618;28;20444;-58
2022/01/28 13:11:25;;;;;;;1.00;0.90;;;6.00;99.90;;;;;;5062431;28;20516;-59
2022/01/28 13:13:53;;;;;;;3.73;1.33;;;5.90;99.90;;;;;;5068479;28;20228;-59
2022/01/28 13:16:33;;;;;;;2.57;1.00;;;5.90;99.90;;;;;;5072017;28;20206;-60
2022/01/28 13:19:01;;;;;;;3.63;1.20;;;5.90;99.90;;;;;;5068440;28;20194;-60
2022/01/28 13:21:28;;;;;;;2.03;1.23;;;5.90;99.90;;;;;;5073451;28;20202;-60
2022/01/28 13:24:16;;;;;;;2.60;1.03;;;5.90;99.90;;;;;;5068303;28;20198;-59
2022/01/28 13:26:54;;;;;;;4.03;1.30;;;5.90;99.90;;;;;;5081185;28;20214;-60
2022/01/28 13:29:34;;;;;;;1.63;0.83;;;5.90;99.90;;;;;;5069725;28;20225;-59
2022/01/28 13:32:04;;;;;;;2.07;1.07;;;5.90;99.90;;;;;;5099765;28;20665;-59
2022/01/28 13:34:48;;;;;;;2.80;1.00;;;5.90;99.90;;;;;;5067792;28;20317;-58
2022/01/28 13:37:39;;;;;;;4.57;1.30;;;5.80;99.90;;;;;;5069173;28;20688;-57
2022/01/28 13:40:11;;;;;;;3.63;1.10;;;5.80;99.90;;;;;;5067370;28;20266;-59
2022/01/28 13:42:39;;;;;;;2.13;1.30;;;5.80;99.90;;;;;;5064269;28;20276;-57
2022/01/28 13:45:07;;;;;;;1.40;1.03;;;5.80;99.90;;;;;;5069124;28;20271;-60
2022/01/28 13:47:54;;;;;;;2.47;1.07;;;5.80;99.90;;;;;;5070224;28;20197;-58
2022/01/28 13:50:27;;;;;;;3.97;1.13;;;5.70;99.90;;;;;;5068455;28;20202;-58
2022/01/28 13:53:32;;;;;;;1.33;0.97;;;5.80;99.90;;;;;;5069297;28;20280;-59
2022/01/28 13:56:08;;;;;;;2.00;1.00;;;5.70;99.90;;;;;;5061151;28;20196;-58
2022/01/28 13:58:44;;;;;;;3.60;1.10;;;5.70;99.90;;;;;;5066502;28;20647;-60
2022/01/28 14:01:12;;;;;;;2.63;1.40;;;5.70;99.90;;;;;;5065699;28;20194;-59
2022/01/28 14:03:50;;;;;;;4.50;1.47;;;5.80;99.90;;;;;;5070311;28;20190;-60
2022/01/28 14:06:18;;;;;;;3.60;1.13;;;5.80;99.90;;;;;;5067123;28;20643;-58
2022/01/28 14:08:50;;;;;;;1.63;1.20;;;5.80;99.90;;;;;;5057651;28;20783;-59
2022/01/28 14:11:26;;;;;;;1.67;1.10;;;5.70;99.90;;;;;;5058283;28;20286;-59